Time;durP1;ratioP1;P1;durP2;ratioP2;P2;SDS_P1;SDS_P2;PMS_P1;PMS_P2;Temp;Humidity;BMP_temperature;BMP_pressure;BME280_temperature;BME280_humidity;BME280_pressure;Samples;Min_cycle;Max_cycle;Signal;HPM_P1;HPM_P2
2022/11/16 01:46:09;;;;;;;155.30;81.00;;;179.80;2252.80;;;;;;3914053;28;20140;-87
2022/11/16 01:48:35;;;;;;;185.85;98.13;;;179.50;2252.80;;;;;;4999440;28;20038;-87
2022/11/16 01:51:01;;;;;;;192.50;100.40;;;179.60;2252.80;;;;;;4999411;28;20088;-87
2022/11/16 01:53:26;;;;;;;186.50;94.85;;;179.50;2252.80;;;;;;4998898;28;20358;-86
2022/11/16 01:55:52;;;;;;;185.63;95.13;;;179.40;2252.80;;;;;;4999198;28;20028;-85
2022/11/16 01:58:19;;;;;;;183.20;89.38;;;;;;;;;;4999405;28;20026;-87
2022/11/16 02:00:47;;;;;;;205.43;106.40;;;;;;;;;;5016655;28;20109;-87
2022/11/16 02:03:17;;;;;;;186.68;97.28;;;179.60;2252.80;;;;;;4999518;28;20450;-87
2022/11/16 02:05:56;;;;;;;191.18;96.18;;;179.40;2252.80;;;;;;4998981;28;20037;-86
2022/11/16 02:11:38;;;;;;;114.35;58.45;;;179.30;2252.80;;;;;;5016556;28;20080;-88
2022/11/16 02:14:22;;;;;;;129.35;63.72;;;179.20;2252.80;;;;;;4999050;28;20116;-88
2022/11/16 02:17:09;;;;;;;104.40;58.97;;;179.20;2252.80;;;;;;4999005;28;20029;-87
2022/11/16 02:19:50;;;;;;;161.50;82.40;;;179.20;2252.80;;;;;;4999043;28;20034;-87
2022/11/16 02:22:15;;;;;;;124.03;57.30;;;179.50;2252.80;;;;;;4998570;28;20033;-88
2022/11/16 02:25:11;;;;;;;106.53;53.53;;;154.40;2252.80;;;;;;4999027;28;20532;-87
2022/11/16 02:27:54;;;;;;;111.63;51.30;;;154.50;2252.80;;;;;;4998434;28;20028;-86
2022/11/16 02:30:21;;;;;;;112.93;55.90;;;154.50;2252.80;;;;;;4998466;28;20041;-87
2022/11/16 02:33:00;;;;;;;105.75;52.35;;;154.50;2252.80;;;;;;4998478;28;20026;-86
2022/11/16 02:35:41;;;;;;;118.88;60.45;;;179.20;2252.80;;;;;;4997819;28;20488;-86
2022/11/16 02:38:16;;;;;;;121.22;63.17;;;179.30;2252.80;;;;;;4998533;28;20037;-87
2022/11/16 02:40:47;;;;;;;152.90;69.80;;;179.30;2252.80;;;;;;4997633;28;20036;-87
2022/11/16 02:43:20;;;;;;;139.68;72.53;;;179.30;2252.80;;;;;;4998243;28;20029;-87
2022/11/16 02:45:50;;;;;;;122.93;65.47;;;179.20;2252.80;;;;;;4994312;28;20054;-86
2022/11/16 02:48:27;;;;;;;140.50;64.60;;;179.20;2252.80;;;;;;4995092;28;20031;-86
2022/11/16 02:50:54;;;;;;;125.38;62.53;;;154.40;2252.80;;;;;;4995687;28;20030;-86
2022/11/16 02:53:22;;;;;;;126.88;56.53;;;179.20;2252.80;;;;;;4995165;28;20046;-87
2022/11/16 02:55:48;;;;;;;144.30;63.03;;;154.30;2252.80;;;;;;4996647;28;20030;-86
2022/11/16 02:58:19;;;;;;;116.88;56.75;;;154.50;2252.80;;;;;;4995951;28;20173;-88
2022/11/16 03:00:53;;;;;;;119.50;61.70;;;154.50;2252.80;;;;;;4994867;28;20588;-88
2022/11/16 03:03:25;;;;;;;155.57;64.57;;;179.20;2252.80;;;;;;4994616;28;20104;-88
2022/11/16 03:05:55;;;;;;;173.02;65.78;;;154.40;2252.80;;;;;;4994838;28;20023;-88
2022/11/16 03:08:32;;;;;;;129.02;61.42;;;154.30;2252.80;;;;;;4994689;28;20027;-88
2022/11/16 03:13:54;;;;;;;169.17;73.07;;;154.50;2252.80;;;;;;4993789;28;20397;-87
2022/11/16 03:16:28;;;;;;;143.80;68.03;;;179.20;2252.80;;;;;;4994186;28;20256;-86
2022/11/16 03:18:57;;;;;;;127.80;62.53;;;179.20;2252.80;;;;;;4993926;28;20034;-86
2022/11/16 03:21:32;;;;;;;127.53;61.42;;;179.20;2252.80;;;;;;4994151;28;20121;-87
2022/11/16 03:23:57;;;;;;;116.13;59.63;;;179.20;2252.80;;;;;;4995757;28;20085;-87
2022/11/16 03:26:27;;;;;;;127.63;66.07;;;179.30;2252.80;;;;;;4995569;28;20421;-88
2022/11/16 03:29:19;;;;;;;140.30;71.43;;;179.30;2252.80;;;;;;4994392;28;20022;-87
2022/11/16 03:31:50;;;;;;;152.70;73.60;;;179.30;2252.80;;;;;;4994168;28;20038;-86
2022/11/16 03:34:19;;;;;;;118.63;57.05;;;179.30;1945.60;;;;;;4995254;28;20073;-87
2022/11/16 03:36:47;;;;;;;112.40;57.03;;;154.40;2252.80;;;;;;4993979;28;20034;-86
2022/11/16 03:39:35;;;;;;;116.15;60.35;;;154.50;2252.80;;;;;;4993877;28;20427;-87
2022/11/16 03:42:05;;;;;;;100.85;53.75;;;179.20;2252.80;;;;;;4994322;28;20030;-87
2022/11/16 03:44:32;;;;;;;108.90;48.85;;;154.30;2201.60;;;;;;4993744;28;20062;-87
2022/11/16 03:46:57;;;;;;;110.28;45.90;;;154.40;2252.80;;;;;;4993593;28;20081;-86
2022/11/16 03:49:23;;;;;;;84.97;37.50;;;154.30;2252.80;;;;;;4993715;28;20392;-88
2022/11/16 03:51:50;;;;;;;76.57;38.88;;;154.20;2252.80;;;;;;4993616;28;20462;-86
2022/11/16 03:54:15;;;;;;;71.57;37.65;;;154.10;2252.80;;;;;;4994139;28;20454;-86
2022/11/16 03:56:41;;;;;;;89.65;46.45;;;;;;;;;;4994285;28;20030;-86
2022/11/16 03:59:07;;;;;;;114.00;55.83;;;;;;;;;;4994879;28;20022;-88
2022/11/16 04:01:34;;;;;;;90.65;46.17;;;;;;;;;;4993980;28;20053;-86
2022/11/16 04:04:00;;;;;;;63.58;35.13;;;;;;;;;;4993651;28;20023;-87
2022/11/16 04:25:59;;;;;;;99.43;49.38;;;;;;;;;;4994865;28;20077;-87
2022/11/16 04:28:28;;;;;;;120.03;54.15;;;;;;;;;;4993667;28;20414;-87
2022/11/16 04:39:09;;;;;;;79.43;36.47;;;;;;;;;;4997473;28;20041;-89
2022/11/16 04:44:21;;;;;;;63.00;33.13;;;;;;;;;;4998417;28;20030;-86
2022/11/16 04:47:05;;;;;;;68.00;38.35;;;;;;;;;;4997037;28;20474;-87
2022/11/16 04:49:31;;;;;;;60.28;35.95;;;;;;;;;;4997107;28;20125;-87
2022/11/16 04:51:57;;;;;;;54.08;31.13;;;;;;;;;;4998587;28;20492;-87
2022/11/16 04:54:23;;;;;;;62.50;35.85;;;;;;;;;;4996837;28;20073;-88
2022/11/16 04:56:50;;;;;;;92.68;47.97;;;;;;;;;;4997072;28;20474;-87
2022/11/16 04:59:16;;;;;;;91.22;46.88;;;;;;;;;;4997120;28;20373;-87
2022/11/16 05:04:27;;;;;;;94.85;50.08;;;;;;;;;;4998200;28;20077;-88
2022/11/16 05:06:53;;;;;;;74.20;41.92;;;;;;;;;;4996896;28;20030;-87
2022/11/16 05:09:19;;;;;;;68.78;37.85;;;;;;;;;;4996573;28;20054;-86
2022/11/16 05:11:45;;;;;;;59.15;34.35;;;;;;;;;;4998036;28;20057;-87
2022/11/16 05:14:11;;;;;;;84.05;44.08;;;;;;;;;;4996739;28;20019;-87
2022/11/16 05:16:37;;;;;;;85.22;48.03;;;;;;;;;;4996482;28;20026;-87
2022/11/16 05:21:48;;;;;;;73.05;42.58;;;;;;;;;;4997755;28;20038;-86
2022/11/16 05:24:32;;;;;;;67.82;38.88;;;;;;;;;;4996535;28;20057;-88
2022/11/16 05:26:59;;;;;;;83.40;48.00;;;;;;;;;;4996586;28;20466;-86
2022/11/16 05:29:25;;;;;;;110.30;58.28;;;;;;;;;;4996519;28;20472;-87
2022/11/16 05:31:50;;;;;;;130.48;65.93;;;179.40;2252.80;;;;;;4996753;28;20097;-87
2022/11/16 05:34:16;;;;;;;150.38;75.85;;;;;;;;;;4996900;28;20454;-87
2022/11/16 05:36:42;;;;;;;154.35;80.07;;;;;;;;;;4996491;28;20521;-87
2022/11/16 05:39:09;;;;;;;158.10;86.35;;;;;;;;;;4996471;28;20030;-87
2022/11/16 05:41:35;;;;;;;181.27;98.93;;;;;;;;;;4996269;28;20037;-87
2022/11/16 05:44:00;;;;;;;199.25;100.40;;;154.50;2252.80;;;;;;4996068;28;20048;-88
2022/11/16 05:46:26;;;;;;;103.57;57.95;;;154.00;2252.80;;;;;;5009582;28;20124;-88
2022/11/16 05:48:52;;;;;;;116.47;61.13;;;;;;;;;;4998974;28;20385;-88
2022/11/16 05:51:18;;;;;;;99.97;55.28;;;;;;;;;;4999522;28;20030;-87
2022/11/16 05:53:44;;;;;;;96.47;53.45;;;;;;;;;;4999529;28;20037;-87
2022/11/16 05:56:13;;;;;;;80.30;48.67;;;;;;;;;;4999648;28;20022;-87
2022/11/16 05:58:39;;;;;;;67.72;43.08;;;;;;;;;;5005499;28;20029;-87
2022/11/16 06:01:05;;;;;;;64.10;37.15;;;;;;;;;;5020970;28;20037;-88
2022/11/16 06:03:31;;;;;;;79.78;47.42;;;;;;;;;;4999245;28;20025;-86
2022/11/16 06:05:57;;;;;;;98.55;54.45;;;;;;;;;;4999018;28;20029;-87
2022/11/16 06:08:24;;;;;;;142.70;79.43;;;;;;;;;;4998897;28;20178;-87
2022/11/16 06:10:50;;;;;;;150.32;78.15;;;;;;;;;;4999119;28;20030;-86
2022/11/16 06:13:16;;;;;;;134.70;73.88;;;179.50;2252.80;;;;;;4998719;28;20469;-87
2022/11/16 06:15:41;;;;;;;117.30;63.50;;;179.20;2252.80;;;;;;5017099;28;20040;-86
2022/11/16 06:18:08;;;;;;;90.70;51.67;;;154.50;2252.80;;;;;;5020849;28;20030;-86
2022/11/16 06:20:34;;;;;;;89.93;50.40;;;154.30;2252.80;;;;;;5020926;28;20049;-84
2022/11/16 06:23:00;;;;;;;100.97;57.22;;;154.20;2252.80;;;;;;5022073;28;20026;-85
2022/11/16 06:25:25;;;;;;;78.30;46.40;;;154.30;2252.80;;;;;;5022050;28;20033;-85
2022/11/16 06:27:51;;;;;;;80.15;46.50;;;154.50;2048.00;;;;;;5020133;28;20049;-88
2022/11/16 06:30:17;;;;;;;88.55;51.97;;;154.50;1868.80;;;;;;5016541;28;20030;-87
2022/11/16 06:32:43;;;;;;;85.18;47.60;;;179.20;2252.80;;;;;;5005238;28;20538;-88
2022/11/16 06:35:09;;;;;;;89.82;53.97;;;154.50;2252.80;;;;;;4999435;28;20112;-88
2022/11/16 06:37:35;;;;;;;83.85;51.42;;;154.50;2252.80;;;;;;4999484;28;20029;-88
2022/11/16 06:40:01;;;;;;;98.40;55.95;;;179.30;2252.80;;;;;;4999144;28;20029;-87
2022/11/16 06:42:27;;;;;;;102.63;54.70;;;179.30;2252.80;;;;;;5016680;28;20033;-88
2022/11/16 06:44:52;;;;;;;87.60;52.10;;;154.50;2252.80;;;;;;4998590;28;20121;-88
2022/11/16 06:47:18;;;;;;;113.70;70.07;;;154.30;2252.80;;;;;;4999114;28;20046;-87
2022/11/16 06:49:44;;;;;;;89.20;55.00;;;154.30;2252.80;;;;;;4998559;28;20080;-88
2022/11/16 06:52:10;;;;;;;87.68;54.28;;;179.20;2252.80;;;;;;5015957;28;20495;-87
2022/11/16 06:54:35;;;;;;;100.22;56.65;;;179.20;2252.80;;;;;;5017043;28;20018;-86
2022/11/16 06:57:01;;;;;;;90.35;56.85;;;179.30;2176.00;;;;;;5008536;28;20030;-87
2022/11/16 06:59:27;;;;;;;94.25;55.78;;;179.30;2252.80;;;;;;4999106;28;20030;-89
2022/11/16 07:01:52;;;;;;;114.03;67.93;;;179.40;1971.20;;;;;;4997833;28;20029;-88
2022/11/16 07:04:18;;;;;;;140.68;81.90;;;179.30;2252.80;;;;;;4997963;28;20026;-87
2022/11/16 07:06:44;;;;;;;122.32;68.65;;;;;;;;;;4998135;28;20034;-88
2022/11/16 07:09:10;;;;;;;124.05;65.05;;;;;;;;;;4998136;28;20022;-88
2022/11/16 07:11:36;;;;;;;121.97;69.47;;;;;;;;;;4998000;28;20022;-88
2022/11/16 07:14:02;;;;;;;125.38;71.07;;;179.60;2252.80;;;;;;4998013;28;20032;-89
2022/11/16 07:16:28;;;;;;;127.45;71.75;;;179.50;2252.80;;;;;;4997784;28;20109;-87
2022/11/16 07:18:56;;;;;;;123.35;75.15;;;179.60;2201.60;;;;;;4997968;28;20112;-88
2022/11/16 07:21:22;;;;;;;111.90;67.68;;;179.40;2252.80;;;;;;4997850;28;20029;-89
2022/11/16 07:23:48;;;;;;;115.88;65.10;;;179.50;2252.80;;;;;;4998074;28;20029;-89
2022/11/16 07:26:14;;;;;;;111.13;67.93;;;179.60;2252.80;;;;;;4997961;28;20030;-88
2022/11/16 07:28:39;;;;;;;115.85;74.75;;;179.50;2252.80;;;;;;4997782;28;20457;-85
2022/11/16 07:31:10;;;;;;;120.88;77.40;;;179.50;2252.80;;;;;;4997718;28;20034;-87
2022/11/16 07:33:37;;;;;;;122.60;77.18;;;179.60;2252.80;;;;;;4997591;28;20025;-88
2022/11/16 07:36:05;;;;;;;120.55;76.80;;;179.70;2252.80;;;;;;5014370;28;20030;-89
2022/11/16 07:38:31;;;;;;;119.85;72.72;;;179.70;2252.80;;;;;;4997519;28;20033;-87
2022/11/16 07:41:02;;;;;;;131.48;80.55;;;179.60;2252.80;;;;;;4996749;28;20053;-88
2022/11/16 07:43:30;;;;;;;126.45;79.13;;;179.70;2252.80;;;;;;5014524;28;20025;-89
2022/11/16 07:46:03;;;;;;;140.27;87.03;;;179.90;2252.80;;;;;;4997565;28;20131;-88
2022/11/16 07:48:30;;;;;;;168.45;98.32;;;180.10;2252.80;;;;;;4998046;28;20373;-91
2022/11/16 07:51:04;;;;;;;161.63;101.13;;;180.10;2252.80;;;;;;4997799;28;20544;-93
2022/11/16 07:53:31;;;;;;;161.15;105.93;;;204.80;2252.80;;;;;;4998046;28;20540;-90
2022/11/16 07:55:57;;;;;;;176.90;118.50;;;205.10;2252.80;;;;;;4997946;28;20026;-93
2022/11/16 07:58:23;;;;;;;157.60;110.95;;;205.00;2252.80;;;;;;4997906;28;20473;-91
2022/11/16 08:00:49;;;;;;;178.95;123.68;;;204.90;2252.80;;;;;;4997670;28;20072;-92
2022/11/16 08:03:16;;;;;;;175.70;116.20;;;204.90;2252.80;;;;;;4997615;28;20068;-91
2022/11/16 08:05:43;;;;;;;189.65;132.52;;;205.00;2252.80;;;;;;4998080;28;20117;-91
2022/11/16 08:08:10;;;;;;;181.57;125.13;;;205.10;2252.80;;;;;;4997651;28;20037;-91
2022/11/16 08:10:36;;;;;;;212.20;147.88;;;205.20;2252.80;;;;;;4997596;28;20057;-91
2022/11/16 08:13:02;;;;;;;194.90;138.00;;;205.30;2252.80;;;;;;5002213;28;20025;-91
2022/11/16 08:15:28;;;;;;;200.75;137.63;;;205.40;2252.80;;;;;;5004065;28;20037;-92
2022/11/16 08:17:57;;;;;;;209.27;144.82;;;205.60;2252.80;;;;;;5004072;28;20030;-91
2022/11/16 08:20:23;;;;;;;212.82;147.77;;;205.50;2252.80;;;;;;5021581;28;20073;-87
2022/11/16 08:22:48;;;;;;;205.60;148.52;;;230.40;2252.80;;;;;;5003920;28;20026;-89
2022/11/16 08:25:15;;;;;;;224.65;156.90;;;230.40;2252.80;;;;;;5004278;28;20040;-90
2022/11/16 08:27:40;;;;;;;224.35;157.98;;;205.70;2252.80;;;;;;5004094;28;20037;-89
2022/11/16 08:30:08;;;;;;;219.60;153.88;;;230.50;2252.80;;;;;;5004478;28;20033;-91
2022/11/16 08:32:37;;;;;;;190.23;134.45;;;230.60;2252.80;;;;;;5004410;28;20088;-90
2022/11/16 08:35:04;;;;;;;180.50;131.23;;;230.60;2252.80;;;;;;5004336;28;20117;-89
2022/11/16 08:37:30;;;;;;;185.88;135.88;;;230.70;2252.80;;;;;;5004902;28;20034;-90
2022/11/16 08:39:56;;;;;;;203.00;144.18;;;230.70;2252.80;;;;;;5004519;28;20464;-89
2022/11/16 08:42:22;;;;;;;209.23;150.45;;;230.80;2252.80;;;;;;5003971;28;20068;-88
2022/11/16 08:44:48;;;;;;;228.77;164.75;;;230.80;2252.80;;;;;;5004231;28;20083;-88
2022/11/16 08:47:14;;;;;;;297.98;203.48;;;231.00;2252.80;;;;;;5003743;28;20116;-90
2022/11/16 08:49:40;;;;;;;314.92;223.75;;;231.00;2252.80;;;;;;5003512;28;20096;-88
2022/11/16 08:52:06;;;;;;;312.13;229.50;;;231.10;2252.80;;;;;;5003344;28;20103;-88
2022/11/16 08:54:32;;;;;;;270.15;202.27;;;231.10;2252.80;;;;;;5003274;28;20026;-87
2022/11/16 08:56:58;;;;;;;247.02;185.30;;;231.20;2252.80;;;;;;5003472;28;20026;-86
